Terminal Aerodrome Forecast
Issued by NWS

Home | Current Version | Previous Version | Text Only | Print | Product List | Glossary Off
Versions: 1 2 3 4 5 6 7 8 9 10 11 12 13 14 15 16 17 18 19 20 21 22 23 24 25 26 27 28 29 30 31 32 33

691
FTUS43 KBIS 201625 AAA
TAFJMS
TAF AMD
KJMS 201625Z 2016/2112 25009KT P6SM BKN200
     FM202000 28013KT P6SM SCT250
     FM202200 31018G26KT P6SM FEW250
     FM210900 32023G32KT P6SM SCT045=

USA.gov is the U.S. government's official web portal to all federal, state and local government web resources and services.